sensor_id;sensor_type;location;lat;lon;timestamp;pressure;altitude;pressure_sealevel;temperature;humidity
38806;BME280;25635;51.146;17.162;2023-04-22T00:01:39;100073.94;;;6.22;68.38
38806;BME280;25635;51.146;17.162;2023-04-22T00:04:09;100073.21;;;6.18;68.56
38806;BME280;25635;51.146;17.162;2023-04-22T00:06:39;100071.13;;;6.15;68.33
38806;BME280;25635;51.146;17.162;2023-04-22T00:09:29;100073.35;;;6.14;68.54
38806;BME280;25635;51.146;17.162;2023-04-22T00:12:02;100068.13;;;6.11;68.83
38806;BME280;25635;51.146;17.162;2023-04-22T00:14:53;100064.13;;;6.07;68.45
38806;BME280;25635;51.146;17.162;2023-04-22T00:23:39;100065.61;;;5.97;68.57
38806;BME280;25635;51.146;17.162;2023-04-22T00:26:06;100065.25;;;5.97;69.37
38806;BME280;25635;51.146;17.162;2023-04-22T00:28:36;100066.10;;;5.96;69.50
38806;BME280;25635;51.146;17.162;2023-04-22T00:31:06;100061.92;;;5.95;69.70
38806;BME280;25635;51.146;17.162;2023-04-22T00:33:41;100059.99;;;5.93;69.94
38806;BME280;25635;51.146;17.162;2023-04-22T00:36:14;100057.55;;;5.91;69.94
38806;BME280;25635;51.146;17.162;2023-04-22T00:38:48;100056.64;;;5.86;69.48
38806;BME280;25635;51.146;17.162;2023-04-22T00:41:24;100056.75;;;5.79;69.49
38806;BME280;25635;51.146;17.162;2023-04-22T00:44:00;100053.20;;;5.69;69.75
38806;BME280;25635;51.146;17.162;2023-04-22T00:46:33;100053.31;;;5.63;69.92
38806;BME280;25635;51.146;17.162;2023-04-22T00:49:02;100056.72;;;5.58;69.80
38806;BME280;25635;51.146;17.162;2023-04-22T00:51:29;100060.45;;;5.50;69.84
38806;BME280;25635;51.146;17.162;2023-04-22T00:54:07;100060.19;;;5.41;69.94
38806;BME280;25635;51.146;17.162;2023-04-22T00:56:45;100061.33;;;5.35;70.07
38806;BME280;25635;51.146;17.162;2023-04-22T00:59:18;100060.83;;;5.37;70.81
38806;BME280;25635;51.146;17.162;2023-04-22T01:01:57;100061.92;;;5.43;71.23
38806;BME280;25635;51.146;17.162;2023-04-22T01:04:32;100067.16;;;5.47;71.21
38806;BME280;25635;51.146;17.162;2023-04-22T01:07:30;100066.52;;;5.51;70.83
38806;BME280;25635;51.146;17.162;2023-04-22T01:10:13;100067.16;;;5.46;70.48
38806;BME280;25635;51.146;17.162;2023-04-22T01:16:54;100070.91;;;5.41;70.53
38806;BME280;25635;51.146;17.162;2023-04-22T01:19:20;100071.33;;;5.32;70.64
38806;BME280;25635;51.146;17.162;2023-04-22T01:21:50;100074.00;;;5.24;70.81
38806;BME280;25635;51.146;17.162;2023-04-22T01:24:55;100075.88;;;5.21;71.31
38806;BME280;25635;51.146;17.162;2023-04-22T01:27:26;100080.67;;;5.18;71.87
38806;BME280;25635;51.146;17.162;2023-04-22T01:29:56;100081.67;;;5.15;71.80
38806;BME280;25635;51.146;17.162;2023-04-22T01:32:29;100075.40;;;5.12;72.03
38806;BME280;25635;51.146;17.162;2023-04-22T01:34:59;100075.59;;;5.12;71.87
38806;BME280;25635;51.146;17.162;2023-04-22T01:40:30;100079.98;;;5.18;72.26
38806;BME280;25635;51.146;17.162;2023-04-22T01:43:00;100073.73;;;5.17;71.93
38806;BME280;25635;51.146;17.162;2023-04-22T01:45:28;100072.63;;;5.11;71.78
38806;BME280;25635;51.146;17.162;2023-04-22T01:48:39;100076.88;;;5.05;71.97
38806;BME280;25635;51.146;17.162;2023-04-22T01:51:19;100073.33;;;4.97;71.80
38806;BME280;25635;51.146;17.162;2023-04-22T01:53:49;100075.29;;;4.89;71.98
38806;BME280;25635;51.146;17.162;2023-04-22T01:56:37;100079.14;;;4.80;72.42
38806;BME280;25635;51.146;17.162;2023-04-22T01:59:17;100069.39;;;4.73;72.87
38806;BME280;25635;51.146;17.162;2023-04-22T02:02:16;100066.77;;;4.72;72.92
38806;BME280;25635;51.146;17.162;2023-04-22T02:05:05;100070.05;;;4.72;72.57
38806;BME280;25635;51.146;17.162;2023-04-22T02:07:33;100060.17;;;4.70;72.96
38806;BME280;25635;51.146;17.162;2023-04-22T02:10:20;100063.77;;;4.67;72.69
38806;BME280;25635;51.146;17.162;2023-04-22T02:12:58;100056.17;;;4.67;72.95
38806;BME280;25635;51.146;17.162;2023-04-22T02:15:38;100059.73;;;4.62;72.63
38806;BME280;25635;51.146;17.162;2023-04-22T02:18:12;100064.67;;;4.57;72.88
38806;BME280;25635;51.146;17.162;2023-04-22T02:20:39;100062.39;;;4.55;72.84
38806;BME280;25635;51.146;17.162;2023-04-22T02:23:19;100058.00;;;4.49;72.86
38806;BME280;25635;51.146;17.162;2023-04-22T02:25:56;100057.09;;;4.45;73.16
38806;BME280;25635;51.146;17.162;2023-04-22T02:28:31;100053.73;;;4.41;73.17
38806;BME280;25635;51.146;17.162;2023-04-22T02:31:03;100052.11;;;4.36;73.62
38806;BME280;25635;51.146;17.162;2023-04-22T02:33:30;100053.11;;;4.34;73.69
38806;BME280;25635;51.146;17.162;2023-04-22T02:36:40;100055.84;;;4.31;73.52
38806;BME280;25635;51.146;17.162;2023-04-22T02:39:24;100050.77;;;4.27;73.45
38806;BME280;25635;51.146;17.162;2023-04-22T02:42:01;100052.64;;;4.26;74.01
38806;BME280;25635;51.146;17.162;2023-04-22T02:44:37;100050.23;;;4.26;73.65
38806;BME280;25635;51.146;17.162;2023-04-22T02:50:34;100046.03;;;4.22;73.44
38806;BME280;25635;51.146;17.162;2023-04-22T02:53:01;100042.15;;;4.17;73.64
38806;BME280;25635;51.146;17.162;2023-04-22T02:55:31;100043.16;;;4.15;74.54
38806;BME280;25635;51.146;17.162;2023-04-22T03:04:53;100041.55;;;4.00;74.87
38806;BME280;25635;51.146;17.162;2023-04-22T03:08:01;100041.98;;;3.95;74.20
38806;BME280;25635;51.146;17.162;2023-04-22T03:10:37;100043.38;;;3.86;74.11
38806;BME280;25635;51.146;17.162;2023-04-22T03:13:06;100042.14;;;3.84;74.65
38806;BME280;25635;51.146;17.162;2023-04-22T03:15:56;100043.75;;;3.87;74.99
38806;BME280;25635;51.146;17.162;2023-04-22T03:18:26;100043.92;;;3.87;74.49
38806;BME280;25635;51.146;17.162;2023-04-22T03:20:53;100042.45;;;3.82;74.40
38806;BME280;25635;51.146;17.162;2023-04-22T03:23:24;100041.39;;;3.80;74.84
38806;BME280;25635;51.146;17.162;2023-04-22T03:25:51;100043.10;;;3.79;74.92
38806;BME280;25635;51.146;17.162;2023-04-22T03:28:22;100036.48;;;3.75;74.86
38806;BME280;25635;51.146;17.162;2023-04-22T03:31:18;100036.45;;;3.73;75.07
38806;BME280;25635;51.146;17.162;2023-04-22T03:33:48;100033.41;;;3.67;74.53
38806;BME280;25635;51.146;17.162;2023-04-22T03:36:15;100032.95;;;3.61;74.62
38806;BME280;25635;51.146;17.162;2023-04-22T03:38:45;100035.12;;;3.56;74.64
38806;BME280;25635;51.146;17.162;2023-04-22T03:41:17;100030.42;;;3.54;74.84
38806;BME280;25635;51.146;17.162;2023-04-22T03:43:44;100028.30;;;3.50;74.63
38806;BME280;25635;51.146;17.162;2023-04-22T03:46:11;100028.90;;;3.46;74.94
38806;BME280;25635;51.146;17.162;2023-04-22T03:48:54;100026.98;;;3.45;75.42
38806;BME280;25635;51.146;17.162;2023-04-22T03:51:21;100030.09;;;3.45;76.07
38806;BME280;25635;51.146;17.162;2023-04-22T03:53:53;100032.86;;;3.46;76.06
38806;BME280;25635;51.146;17.162;2023-04-22T03:59:28;100036.09;;;3.43;76.27
38806;BME280;25635;51.146;17.162;2023-04-22T04:01:55;100034.70;;;3.42;76.19
38806;BME280;25635;51.146;17.162;2023-04-22T04:04:22;100031.42;;;3.43;76.60
38806;BME280;25635;51.146;17.162;2023-04-22T04:06:49;100028.52;;;3.44;76.62
38806;BME280;25635;51.146;17.162;2023-04-22T04:09:26;100025.34;;;3.49;76.78
38806;BME280;25635;51.146;17.162;2023-04-22T04:12:02;100029.02;;;3.52;76.72
38806;BME280;25635;51.146;17.162;2023-04-22T04:14:51;100028.66;;;3.52;76.76
38806;BME280;25635;51.146;17.162;2023-04-22T04:17:16;100027.31;;;3.54;76.81
38806;BME280;25635;51.146;17.162;2023-04-22T04:19:43;100026.29;;;3.54;77.11
38806;BME280;25635;51.146;17.162;2023-04-22T04:22:20;100026.34;;;3.57;77.22
38806;BME280;25635;51.146;17.162;2023-04-22T04:24:50;100026.06;;;3.61;77.53
38806;BME280;25635;51.146;17.162;2023-04-22T04:27:21;100026.81;;;3.64;77.51
38806;BME280;25635;51.146;17.162;2023-04-22T04:30:01;100029.10;;;3.68;77.48
38806;BME280;25635;51.146;17.162;2023-04-22T04:32:34;100028.31;;;3.72;77.59
38806;BME280;25635;51.146;17.162;2023-04-22T04:35:12;100030.64;;;3.77;77.75
38806;BME280;25635;51.146;17.162;2023-04-22T04:37:42;100029.74;;;3.85;77.79
38806;BME280;25635;51.146;17.162;2023-04-22T04:40:20;100024.92;;;3.97;77.81
38806;BME280;25635;51.146;17.162;2023-04-22T04:42:52;100024.65;;;4.11;77.98
38806;BME280;25635;51.146;17.162;2023-04-22T04:45:23;100025.04;;;4.26;77.86
38806;BME280;25635;51.146;17.162;2023-04-22T04:47:53;100027.84;;;4.41;77.93
38806;BME280;25635;51.146;17.162;2023-04-22T04:50:23;100021.99;;;4.56;77.78
38806;BME280;25635;51.146;17.162;2023-04-22T04:53:37;100026.52;;;4.70;77.55
38806;BME280;25635;51.146;17.162;2023-04-22T04:56:07;100024.66;;;4.87;77.42
38806;BME280;25635;51.146;17.162;2023-04-22T04:59:03;100027.40;;;5.00;77.55
38806;BME280;25635;51.146;17.162;2023-04-22T05:01:37;100027.23;;;5.15;77.47
38806;BME280;25635;51.146;17.162;2023-04-22T05:04:06;100024.77;;;5.28;77.67
38806;BME280;25635;51.146;17.162;2023-04-22T05:06:36;100020.77;;;5.42;77.81
38806;BME280;25635;51.146;17.162;2023-04-22T05:09:08;100019.88;;;5.57;77.71
38806;BME280;25635;51.146;17.162;2023-04-22T05:14:44;100027.30;;;5.93;77.10
38806;BME280;25635;51.146;17.162;2023-04-22T05:20:29;100027.46;;;6.38;77.28
38806;BME280;25635;51.146;17.162;2023-04-22T05:23:14;100025.51;;;6.58;77.77
38806;BME280;25635;51.146;17.162;2023-04-22T05:26:13;100025.45;;;6.81;77.65
38806;BME280;25635;51.146;17.162;2023-04-22T05:29:03;100030.73;;;7.02;77.13
38806;BME280;25635;51.146;17.162;2023-04-22T05:31:38;100033.58;;;7.19;75.97
38806;BME280;25635;51.146;17.162;2023-04-22T05:34:20;100031.89;;;7.34;75.77
38806;BME280;25635;51.146;17.162;2023-04-22T05:37:13;100035.73;;;7.51;75.98
38806;BME280;25635;51.146;17.162;2023-04-22T05:40:23;100034.38;;;7.73;75.70
38806;BME280;25635;51.146;17.162;2023-04-22T05:43:04;100033.86;;;7.93;75.43
38806;BME280;25635;51.146;17.162;2023-04-22T05:54:58;100028.81;;;9.01;74.91
38806;BME280;25635;51.146;17.162;2023-04-22T05:57:28;100025.75;;;9.22;74.35
38806;BME280;25635;51.146;17.162;2023-04-22T06:03:16;100026.33;;;9.71;73.72
38806;BME280;25635;51.146;17.162;2023-04-22T06:05:54;100026.02;;;9.89;73.06
38806;BME280;25635;51.146;17.162;2023-04-22T06:08:43;100026.36;;;10.11;72.94
38806;BME280;25635;51.146;17.162;2023-04-22T06:11:32;100027.91;;;10.32;72.99
38806;BME280;25635;51.146;17.162;2023-04-22T06:13:58;100025.95;;;10.56;72.87
38806;BME280;25635;51.146;17.162;2023-04-22T06:16:27;100028.84;;;10.78;72.73
38806;BME280;25635;51.146;17.162;2023-04-22T06:22:43;100029.34;;;11.37;72.00
38806;BME280;25635;51.146;17.162;2023-04-22T06:29:08;100030.17;;;11.98;70.86
38806;BME280;25635;51.146;17.162;2023-04-22T06:45:28;100018.38;;;13.47;67.99
38806;BME280;25635;51.146;17.162;2023-04-22T06:54:45;100021.48;;;14.29;66.05
38806;BME280;25635;51.146;17.162;2023-04-22T07:00:46;100022.33;;;14.76;64.34
38806;BME280;25635;51.146;17.162;2023-04-22T07:03:42;100026.96;;;14.99;64.75
38806;BME280;25635;51.146;17.162;2023-04-22T07:06:41;100025.29;;;15.26;63.61
38806;BME280;25635;51.146;17.162;2023-04-22T07:09:34;100028.04;;;15.28;60.63
38806;BME280;25635;51.146;17.162;2023-04-22T07:14:57;100025.16;;;15.12;59.87
38806;BME280;25635;51.146;17.162;2023-04-22T07:17:47;100024.68;;;15.29;62.05
38806;BME280;25635;51.146;17.162;2023-04-22T07:24:14;100026.08;;;15.87;61.01
38806;BME280;25635;51.146;17.162;2023-04-22T07:27:24;100028.89;;;16.18;61.87
38806;BME280;25635;51.146;17.162;2023-04-22T07:40:14;100026.67;;;17.44;58.17
38806;BME280;25635;51.146;17.162;2023-04-22T07:42:46;100027.61;;;17.56;56.72
38806;BME280;25635;51.146;17.162;2023-04-22T07:45:47;100027.70;;;17.67;57.86
38806;BME280;25635;51.146;17.162;2023-04-22T07:48:27;100026.67;;;17.98;58.42
38806;BME280;25635;51.146;17.162;2023-04-22T07:51:17;100030.39;;;18.27;57.95
38806;BME280;25635;51.146;17.162;2023-04-22T07:54:03;100025.08;;;18.56;57.28
38806;BME280;25635;51.146;17.162;2023-04-22T07:57:01;100025.71;;;18.86;56.49
38806;BME280;25635;51.146;17.162;2023-04-22T08:00:20;100024.08;;;19.10;56.53
38806;BME280;25635;51.146;17.162;2023-04-22T08:02:50;100021.58;;;19.34;56.26
38806;BME280;25635;51.146;17.162;2023-04-22T08:05:46;100026.52;;;19.53;54.72
38806;BME280;25635;51.146;17.162;2023-04-22T08:08:23;100024.27;;;19.74;55.00
38806;BME280;25635;51.146;17.162;2023-04-22T08:11:00;100021.52;;;19.98;54.81
38806;BME280;25635;51.146;17.162;2023-04-22T08:13:50;100020.48;;;20.23;53.81
38806;BME280;25635;51.146;17.162;2023-04-22T08:16:22;100021.73;;;20.36;51.91
38806;BME280;25635;51.146;17.162;2023-04-22T08:19:10;100021.64;;;20.45;53.41
38806;BME280;25635;51.146;17.162;2023-04-22T08:21:41;100021.42;;;20.70;53.40
38806;BME280;25635;51.146;17.162;2023-04-22T08:24:13;100024.13;;;20.89;51.80
38806;BME280;25635;51.146;17.162;2023-04-22T08:26:40;100024.08;;;21.00;51.65
38806;BME280;25635;51.146;17.162;2023-04-22T08:29:07;100024.42;;;21.07;50.52
38806;BME280;25635;51.146;17.162;2023-04-22T08:31:45;100023.67;;;21.17;50.32
38806;BME280;25635;51.146;17.162;2023-04-22T08:34:18;100017.73;;;21.32;50.52
38806;BME280;25635;51.146;17.162;2023-04-22T08:37:19;100019.19;;;21.48;50.59
38806;BME280;25635;51.146;17.162;2023-04-22T08:39:53;100016.70;;;21.70;49.68
38806;BME280;25635;51.146;17.162;2023-04-22T08:42:43;100016.28;;;21.83;49.70
38806;BME280;25635;51.146;17.162;2023-04-22T08:45:15;100015.30;;;21.94;49.49
38806;BME280;25635;51.146;17.162;2023-04-22T08:48:50;100016.46;;;22.08;48.83
38806;BME280;25635;51.146;17.162;2023-04-22T08:51:02;100011.56;;;22.19;48.59
38806;BME280;25635;51.146;17.162;2023-04-22T08:56:34;100006.34;;;22.47;48.46
38806;BME280;25635;51.146;17.162;2023-04-22T08:59:09;100007.92;;;22.65;48.23
38806;BME280;25635;51.146;17.162;2023-04-22T09:01:43;100010.21;;;22.89;48.94
38806;BME280;25635;51.146;17.162;2023-04-22T09:04:17;100010.22;;;23.06;47.99
38806;BME280;25635;51.146;17.162;2023-04-22T09:06:47;100012.52;;;23.20;47.53
38806;BME280;25635;51.146;17.162;2023-04-22T09:09:18;100010.61;;;23.31;46.80
38806;BME280;25635;51.146;17.162;2023-04-22T09:11:57;100010.66;;;23.39;46.46
38806;BME280;25635;51.146;17.162;2023-04-22T09:14:42;100013.85;;;23.50;45.89
38806;BME280;25635;51.146;17.162;2023-04-22T09:17:15;100014.95;;;23.57;46.31
38806;BME280;25635;51.146;17.162;2023-04-22T09:20:02;100011.08;;;23.73;45.62
38806;BME280;25635;51.146;17.162;2023-04-22T09:22:52;100008.02;;;23.80;45.72
38806;BME280;25635;51.146;17.162;2023-04-22T09:25:48;100007.77;;;23.89;44.56
38806;BME280;25635;51.146;17.162;2023-04-22T09:28:19;100003.61;;;23.98;44.47
38806;BME280;25635;51.146;17.162;2023-04-22T09:30:46;100004.40;;;24.10;44.62
38806;BME280;25635;51.146;17.162;2023-04-22T09:36:17;100006.11;;;24.21;44.02
38806;BME280;25635;51.146;17.162;2023-04-22T09:39:14;100001.83;;;24.38;43.35
38806;BME280;25635;51.146;17.162;2023-04-22T09:41:56;99998.70;;;24.41;42.47
38806;BME280;25635;51.146;17.162;2023-04-22T09:44:52;99992.44;;;24.50;42.66
38806;BME280;25635;51.146;17.162;2023-04-22T09:47:45;99988.49;;;24.56;41.67
38806;BME280;25635;51.146;17.162;2023-04-22T09:50:55;99987.33;;;24.62;42.26
38806;BME280;25635;51.146;17.162;2023-04-22T09:53:42;99984.39;;;24.76;41.78
38806;BME280;25635;51.146;17.162;2023-04-22T09:59:37;99983.66;;;24.56;38.95
38806;BME280;25635;51.146;17.162;2023-04-22T10:05:40;99983.23;;;24.52;39.04
38806;BME280;25635;51.146;17.162;2023-04-22T10:08:18;99977.82;;;24.63;40.02
38806;BME280;25635;51.146;17.162;2023-04-22T10:11:19;99979.25;;;24.88;39.84
38806;BME280;25635;51.146;17.162;2023-04-22T10:18:46;99974.60;;;25.29;39.03
38806;BME280;25635;51.146;17.162;2023-04-22T10:21:08;99974.22;;;25.39;37.37
38806;BME280;25635;51.146;17.162;2023-04-22T10:24:15;99973.04;;;25.45;37.20
38806;BME280;25635;51.146;17.162;2023-04-22T10:33:42;99962.73;;;25.42;36.49
38806;BME280;25635;51.146;17.162;2023-04-22T10:43:42;99952.71;;;25.62;36.26
38806;BME280;25635;51.146;17.162;2023-04-22T10:49:46;99940.70;;;25.16;32.18
38806;BME280;25635;51.146;17.162;2023-04-22T10:55:52;99944.94;;;25.07;34.98
38806;BME280;25635;51.146;17.162;2023-04-22T10:58:32;99941.96;;;25.13;34.47
38806;BME280;25635;51.146;17.162;2023-04-22T11:00:59;99939.36;;;25.23;33.93
38806;BME280;25635;51.146;17.162;2023-04-22T11:04:35;99933.89;;;25.31;34.73
38806;BME280;25635;51.146;17.162;2023-04-22T11:07:31;99940.41;;;25.55;35.01
38806;BME280;25635;51.146;17.162;2023-04-22T11:13:55;99926.98;;;25.50;34.80
38806;BME280;25635;51.146;17.162;2023-04-22T11:16:54;99924.96;;;25.65;33.96
38806;BME280;25635;51.146;17.162;2023-04-22T11:19:31;99915.48;;;25.65;34.52
38806;BME280;25635;51.146;17.162;2023-04-22T11:25:59;99909.23;;;25.65;33.40
38806;BME280;25635;51.146;17.162;2023-04-22T11:28:58;99907.80;;;25.61;33.62
38806;BME280;25635;51.146;17.162;2023-04-22T11:35:22;99907.46;;;25.79;33.11
38806;BME280;25635;51.146;17.162;2023-04-22T11:38:25;99904.11;;;25.77;33.93
38806;BME280;25635;51.146;17.162;2023-04-22T11:44:05;99900.41;;;25.91;33.10
38806;BME280;25635;51.146;17.162;2023-04-22T11:51:25;99897.14;;;25.65;33.26
38806;BME280;25635;51.146;17.162;2023-04-22T11:53:53;99893.35;;;25.63;33.56
38806;BME280;25635;51.146;17.162;2023-04-22T11:56:43;99892.30;;;25.70;33.34
38806;BME280;25635;51.146;17.162;2023-04-22T12:00:13;99888.92;;;25.65;32.21
38806;BME280;25635;51.146;17.162;2023-04-22T12:02:39;99884.46;;;25.50;33.18
38806;BME280;25635;51.146;17.162;2023-04-22T12:05:41;99882.58;;;25.54;32.60
38806;BME280;25635;51.146;17.162;2023-04-22T12:11:50;99882.42;;;25.44;32.49
38806;BME280;25635;51.146;17.162;2023-04-22T12:14:37;99883.38;;;25.41;32.32
38806;BME280;25635;51.146;17.162;2023-04-22T12:24:12;99875.17;;;25.53;32.61
38806;BME280;25635;51.146;17.162;2023-04-22T12:29:33;99877.73;;;25.62;32.74
38806;BME280;25635;51.146;17.162;2023-04-22T12:32:02;99873.63;;;25.59;31.42
38806;BME280;25635;51.146;17.162;2023-04-22T12:34:32;99866.35;;;25.33;29.59
38806;BME280;25635;51.146;17.162;2023-04-22T12:37:21;99861.75;;;25.10;31.79
38806;BME280;25635;51.146;17.162;2023-04-22T12:40:32;99863.17;;;25.20;31.29
38806;BME280;25635;51.146;17.162;2023-04-22T12:46:42;99861.63;;;24.95;31.85
38806;BME280;25635;51.146;17.162;2023-04-22T12:56:07;99842.31;;;25.05;30.91
38806;BME280;25635;51.146;17.162;2023-04-22T13:02:07;99837.38;;;25.07;31.99
38806;BME280;25635;51.146;17.162;2023-04-22T13:04:47;99834.21;;;25.16;31.66
38806;BME280;25635;51.146;17.162;2023-04-22T13:07:25;99831.95;;;25.11;31.47
38806;BME280;25635;51.146;17.162;2023-04-22T13:10:33;99829.55;;;25.14;32.08
38806;BME280;25635;51.146;17.162;2023-04-22T13:19:57;99813.81;;;25.17;31.39
38806;BME280;25635;51.146;17.162;2023-04-22T13:26:55;99808.72;;;25.06;31.25
38806;BME280;25635;51.146;17.162;2023-04-22T13:33:27;99798.17;;;25.06;30.80
38806;BME280;25635;51.146;17.162;2023-04-22T13:36:33;99801.04;;;25.02;30.79
38806;BME280;25635;51.146;17.162;2023-04-22T13:39:29;99799.35;;;24.88;30.82
38806;BME280;25635;51.146;17.162;2023-04-22T13:46:08;99793.77;;;24.94;31.20
38806;BME280;25635;51.146;17.162;2023-04-22T13:48:41;99790.63;;;24.93;30.53
38806;BME280;25635;51.146;17.162;2023-04-22T13:51:27;99789.64;;;24.87;30.87
38806;BME280;25635;51.146;17.162;2023-04-22T13:53:55;99790.23;;;24.89;31.38
38806;BME280;25635;51.146;17.162;2023-04-22T14:00:02;99786.05;;;24.82;31.47
38806;BME280;25635;51.146;17.162;2023-04-22T14:09:29;99781.57;;;24.65;32.12
38806;BME280;25635;51.146;17.162;2023-04-22T14:12:29;99778.77;;;24.63;31.28
38806;BME280;25635;51.146;17.162;2023-04-22T14:15:29;99777.31;;;24.65;31.91
38806;BME280;25635;51.146;17.162;2023-04-22T14:21:23;99774.66;;;24.50;31.11
38806;BME280;25635;51.146;17.162;2023-04-22T14:27:20;99762.91;;;24.40;31.59
38806;BME280;25635;51.146;17.162;2023-04-22T14:34:00;99765.94;;;24.40;31.84
38806;BME280;25635;51.146;17.162;2023-04-22T14:36:28;99757.88;;;24.43;32.04
38806;BME280;25635;51.146;17.162;2023-04-22T14:42:38;99756.41;;;24.46;31.93
38806;BME280;25635;51.146;17.162;2023-04-22T14:45:49;99751.30;;;24.38;31.84
38806;BME280;25635;51.146;17.162;2023-04-22T14:58:14;99752.05;;;23.90;32.85
38806;BME280;25635;51.146;17.162;2023-04-22T15:04:21;99746.93;;;23.87;32.61
38806;BME280;25635;51.146;17.162;2023-04-22T15:06:56;99744.80;;;23.87;32.64
38806;BME280;25635;51.146;17.162;2023-04-22T15:09:48;99743.44;;;23.89;32.76
38806;BME280;25635;51.146;17.162;2023-04-22T15:12:38;99740.92;;;23.96;32.83
38806;BME280;25635;51.146;17.162;2023-04-22T15:15:09;99736.59;;;23.97;32.70
38806;BME280;25635;51.146;17.162;2023-04-22T15:17:54;99734.38;;;23.96;32.92
38806;BME280;25635;51.146;17.162;2023-04-22T15:20:34;99734.80;;;23.95;32.17
38806;BME280;25635;51.146;17.162;2023-04-22T15:23:01;99732.53;;;23.76;32.42
38806;BME280;25635;51.146;17.162;2023-04-22T15:26:13;99729.20;;;23.70;32.64
38806;BME280;25635;51.146;17.162;2023-04-22T15:29:10;99730.29;;;23.64;32.67
38806;BME280;25635;51.146;17.162;2023-04-22T15:41:45;99733.23;;;23.32;32.83
38806;BME280;25635;51.146;17.162;2023-04-22T15:44:37;99732.30;;;23.25;32.95
38806;BME280;25635;51.146;17.162;2023-04-22T15:50:00;99726.94;;;23.15;33.82
38806;BME280;25635;51.146;17.162;2023-04-22T15:52:37;99724.52;;;23.11;33.71
38806;BME280;25635;51.146;17.162;2023-04-22T15:55:05;99721.60;;;23.02;33.10
38806;BME280;25635;51.146;17.162;2023-04-22T15:57:33;99721.33;;;22.84;33.41
38806;BME280;25635;51.146;17.162;2023-04-22T16:00:20;99717.12;;;22.75;33.30
38806;BME280;25635;51.146;17.162;2023-04-22T16:03:12;99717.64;;;22.62;33.67
38806;BME280;25635;51.146;17.162;2023-04-22T16:05:39;99713.92;;;22.48;33.84
38806;BME280;25635;51.146;17.162;2023-04-22T16:08:33;99715.22;;;22.36;34.06
38806;BME280;25635;51.146;17.162;2023-04-22T16:20:52;99706.20;;;21.56;34.45
38806;BME280;25635;51.146;17.162;2023-04-22T16:29:59;99700.13;;;20.94;34.98
38806;BME280;25635;51.146;17.162;2023-04-22T16:35:43;99694.31;;;20.69;35.60
38806;BME280;25635;51.146;17.162;2023-04-22T16:38:42;99690.89;;;20.58;35.99
38806;BME280;25635;51.146;17.162;2023-04-22T16:41:14;99689.69;;;20.44;36.02
38806;BME280;25635;51.146;17.162;2023-04-22T16:43:44;99686.80;;;20.33;36.24
38806;BME280;25635;51.146;17.162;2023-04-22T16:46:11;99687.61;;;20.18;36.20
38806;BME280;25635;51.146;17.162;2023-04-22T16:51:55;99681.29;;;19.92;36.50
38806;BME280;25635;51.146;17.162;2023-04-22T16:54:30;99682.46;;;19.83;36.68
38806;BME280;25635;51.146;17.162;2023-04-22T16:57:26;99682.34;;;19.68;36.38
38806;BME280;25635;51.146;17.162;2023-04-22T17:03:09;99675.16;;;19.44;37.30
38806;BME280;25635;51.146;17.162;2023-04-22T17:05:40;99675.73;;;19.33;37.41
38806;BME280;25635;51.146;17.162;2023-04-22T17:11:20;99675.61;;;19.04;37.88
38806;BME280;25635;51.146;17.162;2023-04-22T17:14:02;99671.98;;;18.92;38.17
38806;BME280;25635;51.146;17.162;2023-04-22T17:16:33;99670.36;;;18.79;38.12
38806;BME280;25635;51.146;17.162;2023-04-22T17:19:28;99670.09;;;18.70;38.91
38806;BME280;25635;51.146;17.162;2023-04-22T17:22:00;99669.09;;;18.61;38.92
38806;BME280;25635;51.146;17.162;2023-04-22T17:24:30;99666.06;;;18.51;38.97
38806;BME280;25635;51.146;17.162;2023-04-22T17:27:07;99666.39;;;18.40;39.10
38806;BME280;25635;51.146;17.162;2023-04-22T17:29:46;99669.71;;;18.30;39.24
38806;BME280;25635;51.146;17.162;2023-04-22T17:32:28;99667.62;;;18.19;39.38
38806;BME280;25635;51.146;17.162;2023-04-22T17:34:58;99668.73;;;18.10;40.33
38806;BME280;25635;51.146;17.162;2023-04-22T17:37:28;99668.81;;;18.01;39.99
38806;BME280;25635;51.146;17.162;2023-04-22T17:43:11;99665.92;;;17.75;40.39
38806;BME280;25635;51.146;17.162;2023-04-22T17:46:24;99667.70;;;17.63;40.42
38806;BME280;25635;51.146;17.162;2023-04-22T17:49:18;99668.52;;;17.49;41.07
38806;BME280;25635;51.146;17.162;2023-04-22T17:55:32;99669.70;;;17.22;41.74
38806;BME280;25635;51.146;17.162;2023-04-22T17:58:19;99672.99;;;17.07;42.12
38806;BME280;25635;51.146;17.162;2023-04-22T18:00:46;99674.80;;;16.94;41.69
38806;BME280;25635;51.146;17.162;2023-04-22T18:03:18;99679.73;;;16.80;42.50
38806;BME280;25635;51.146;17.162;2023-04-22T18:05:48;99678.53;;;16.67;42.79
38806;BME280;25635;51.146;17.162;2023-04-22T18:08:38;99680.36;;;16.52;43.30
38806;BME280;25635;51.146;17.162;2023-04-22T18:11:20;99677.90;;;16.34;43.37
38806;BME280;25635;51.146;17.162;2023-04-22T18:14:05;99675.38;;;16.18;43.67
38806;BME280;25635;51.146;17.162;2023-04-22T18:17:03;99677.67;;;16.05;44.12
38806;BME280;25635;51.146;17.162;2023-04-22T18:19:35;99677.39;;;15.89;44.55
38806;BME280;25635;51.146;17.162;2023-04-22T18:22:33;99679.74;;;15.73;45.11
38806;BME280;25635;51.146;17.162;2023-04-22T18:28:17;99683.29;;;15.42;45.95
38806;BME280;25635;51.146;17.162;2023-04-22T18:33:34;99686.89;;;15.15;46.87
38806;BME280;25635;51.146;17.162;2023-04-22T18:36:25;99689.63;;;14.97;47.54
38806;BME280;25635;51.146;17.162;2023-04-22T18:38:54;99690.98;;;14.72;48.09
38806;BME280;25635;51.146;17.162;2023-04-22T18:41:23;99697.78;;;14.51;48.70
38806;BME280;25635;51.146;17.162;2023-04-22T18:44:40;99699.46;;;14.31;49.13